Vanzil'- Kynak, Russia
Current Conditions -  °F | °C
As of 5:30 PM on Thursday 27 Nov 2014 (Local Time) from USNN Reporting Station
Clear Clear  
Wind Chill: -51°   Ceiling: Unl
Heat Index: -27°   Visibility: 6mi
Dew Point: -36°   Wind: 11mph
Humidity: 62%   Direction: 290°WNW
Pressure: 30.09"   Gusts: 20mph
Location:  60.35°N, 84.08°E
Report Text: USNN 271030Z 29005G09MPS CAVOK M33/M38 Q1019 NOSIG RMK QFE75921410260
Loading
Personal Weather Stations






























Interactive Weather Map New forecast layout! Learn more

10-Day Weather Forecast

Advertisements
Track Severe Weather on mobile